createdAt,value
2024-03-02T00:00:39.267Z,11.15
2024-03-02T00:03:07.899Z,11.85
2024-03-02T00:05:36.356Z,11.52
2024-03-02T00:08:05.969Z,13.25
2024-03-02T00:10:38.176Z,10.93
2024-03-02T00:13:05.470Z,12.73
2024-03-02T00:15:42.277Z,13.30
2024-03-02T00:18:11.596Z,11.95
2024-03-02T00:20:40.418Z,12.38
2024-03-02T00:23:08.955Z,12.15
2024-03-02T00:25:43.169Z,12.23
2024-03-02T00:28:21.155Z,12.73
2024-03-02T00:33:44.086Z,11.18
2024-03-02T00:36:13.898Z,11.43
2024-03-02T00:38:47.332Z,11.88
2024-03-02T00:41:20.117Z,10.70
2024-03-02T00:46:20.574Z,9.10
2024-03-02T00:48:55.045Z,11.02
2024-03-02T00:51:24.985Z,11.38
2024-03-02T00:53:52.908Z,10.65
2024-03-02T00:56:20.323Z,11.23
2024-03-02T00:58:47.390Z,11.20
2024-03-02T01:01:14.542Z,11.93
2024-03-02T01:06:27.768Z,10.30
2024-03-02T01:08:54.872Z,12.13
2024-03-02T01:11:21.865Z,11.85
2024-03-02T01:13:49.148Z,11.02
2024-03-02T01:16:16.287Z,11.50
2024-03-02T01:21:29.702Z,10.90
2024-03-02T01:26:41.077Z,10.38
2024-03-02T01:29:08.193Z,9.57
2024-03-02T01:31:35.185Z,11.85
2024-03-02T01:34:02.360Z,12.48
2024-03-02T01:36:30.930Z,12.40
2024-03-02T01:38:57.906Z,12.23
2024-03-02T01:41:24.927Z,11.77
2024-03-02T01:43:52.097Z,11.77
2024-03-02T01:46:19.317Z,12.10
2024-03-02T01:48:46.441Z,12.60
2024-03-02T01:51:13.556Z,11.55
2024-03-02T01:53:41.985Z,12.93
2024-03-02T01:56:09.184Z,11.32
2024-03-02T01:58:36.281Z,12.35
2024-03-02T02:01:03.621Z,11.15
2024-03-02T02:03:30.847Z,11.15
2024-03-02T02:05:57.946Z,10.57
2024-03-02T02:08:24.925Z,8.95
2024-03-02T02:10:53.322Z,9.00
2024-03-02T02:13:20.325Z,8.55
2024-03-02T02:15:47.506Z,7.95
2024-03-02T02:18:14.673Z,7.88
2024-03-02T02:23:27.757Z,8.85
2024-03-02T02:25:55.395Z,8.05
2024-03-02T02:28:22.468Z,9.90
2024-03-02T02:30:49.588Z,9.80
2024-03-02T02:33:16.681Z,10.07
2024-03-02T02:35:43.718Z,10.75
2024-03-02T02:38:10.782Z,11.82
2024-03-02T02:40:39.245Z,10.75
2024-03-02T02:43:06.244Z,11.10
2024-03-02T02:45:33.372Z,11.88
2024-03-02T02:48:00.413Z,11.93
2024-03-02T02:50:27.471Z,10.93
2024-03-02T02:52:54.445Z,9.82
2024-03-02T02:55:21.676Z,10.50
2024-03-02T02:57:50.113Z,10.82
2024-03-02T03:00:18.908Z,9.68
2024-03-02T03:02:47.751Z,10.18
2024-03-02T03:05:15.733Z,10.48
2024-03-02T03:07:43.788Z,9.77
2024-03-02T03:10:11.158Z,11.52
2024-03-02T03:12:38.366Z,11.10
2024-03-02T03:15:08.044Z,12.07
2024-03-02T03:17:35.329Z,12.65
2024-03-02T03:20:02.723Z,13.25
2024-03-02T03:25:14.232Z,11.20
2024-03-02T03:27:41.379Z,12.40
2024-03-02T03:30:11.989Z,10.48
2024-03-02T03:32:39.014Z,10.45
2024-03-02T03:35:07.030Z,10.07
2024-03-02T03:37:35.064Z,9.75
2024-03-02T03:40:03.668Z,10.80
2024-03-02T03:42:30.757Z,10.55
2024-03-02T03:44:57.802Z,10.95
2024-03-02T03:47:26.246Z,12.35
2024-03-02T03:49:53.288Z,11.55
2024-03-02T03:52:20.343Z,13.00
2024-03-02T03:54:47.394Z,11.80
2024-03-02T03:57:14.496Z,11.80
2024-03-02T03:59:41.500Z,12.43
2024-03-02T04:02:08.513Z,12.38
2024-03-02T04:04:37.093Z,12.10
2024-03-02T04:07:04.389Z,12.90
2024-03-02T04:09:31.395Z,10.30
2024-03-02T04:11:58.586Z,10.25
2024-03-02T04:14:25.615Z,11.20
2024-03-02T04:16:52.546Z,10.38
2024-03-02T04:19:19.528Z,9.27
2024-03-02T04:21:48.125Z,10.30
2024-03-02T04:24:15.184Z,11.60
2024-03-02T04:26:42.166Z,10.80
2024-03-02T04:29:09.177Z,10.63
2024-03-02T04:31:36.184Z,11.02
2024-03-02T04:34:03.309Z,11.73
2024-03-02T04:36:30.351Z,11.32
2024-03-02T04:38:58.787Z,11.77
2024-03-02T04:41:25.786Z,11.93
2024-03-02T04:46:37.464Z,10.75
2024-03-02T04:49:04.592Z,10.30
2024-03-02T04:51:31.644Z,9.93
2024-03-02T04:54:00.107Z,11.68
2024-03-02T04:56:27.084Z,10.93
2024-03-02T04:58:54.178Z,11.68
2024-03-02T05:01:21.272Z,10.63
2024-03-02T05:03:48.456Z,10.82
2024-03-02T05:06:15.490Z,9.90
2024-03-02T05:08:42.588Z,10.38
2024-03-02T05:11:11.112Z,8.90
2024-03-02T05:13:38.283Z,9.60
2024-03-02T05:16:05.424Z,9.02
2024-03-02T05:18:32.459Z,10.10
2024-03-02T05:20:59.543Z,9.35
2024-03-02T05:23:26.563Z,9.82
2024-03-02T05:26:13.327Z,9.93
2024-03-02T05:28:40.485Z,9.73
2024-03-02T05:31:07.720Z,10.60
2024-03-02T05:33:34.939Z,11.00
2024-03-02T05:36:01.995Z,10.20
2024-03-02T05:38:29.026Z,10.15
2024-03-02T05:40:56.118Z,10.35
2024-03-02T05:43:24.635Z,10.82
2024-03-02T05:45:51.669Z,9.48
2024-03-02T05:48:18.921Z,9.88
2024-03-02T05:50:45.991Z,10.23
2024-03-02T05:53:13.083Z,10.85
2024-03-02T05:55:40.226Z,11.00
2024-03-02T05:58:07.288Z,11.48
2024-03-02T06:00:35.889Z,9.88
2024-03-02T06:03:03.011Z,8.77
2024-03-02T06:05:29.997Z,8.13
2024-03-02T06:07:57.002Z,8.82
2024-03-02T06:10:24.063Z,8.10
2024-03-02T06:12:51.219Z,9.77
2024-03-02T06:15:18.329Z,10.27
2024-03-02T06:17:46.788Z,10.27
2024-03-02T06:20:14.024Z,9.52
2024-03-02T06:22:41.076Z,10.77
2024-03-02T06:25:08.843Z,10.55
2024-03-02T06:27:36.142Z,9.05
2024-03-02T06:30:03.470Z,9.80
2024-03-02T06:32:30.443Z,9.43
2024-03-02T06:34:58.793Z,10.73
2024-03-02T06:37:25.806Z,12.40
2024-03-02T06:39:52.774Z,10.85
2024-03-02T06:42:19.880Z,10.82
2024-03-02T06:44:46.862Z,11.68
2024-03-02T06:47:13.935Z,11.48
2024-03-02T06:49:40.903Z,10.45
2024-03-02T06:52:09.302Z,10.95
2024-03-02T06:54:37.528Z,11.35
2024-03-02T06:57:04.840Z,11.02
2024-03-02T06:59:31.820Z,10.23
2024-03-02T07:01:59.207Z,10.68
2024-03-02T07:04:26.326Z,11.13
2024-03-02T07:06:53.403Z,11.18
2024-03-02T07:09:22.034Z,11.07
2024-03-02T07:11:52.172Z,11.32
2024-03-02T07:14:19.632Z,11.00
2024-03-02T07:16:46.577Z,12.38
2024-03-02T07:19:13.819Z,10.82
2024-03-02T07:21:40.944Z,10.52
2024-03-02T07:24:08.306Z,11.82
2024-03-02T07:29:06.686Z,17.10
2024-03-02T07:31:33.675Z,16.92
2024-03-02T07:34:00.694Z,16.10
2024-03-02T07:36:27.731Z,14.63
2024-03-02T07:38:54.831Z,14.95
2024-03-02T07:41:21.947Z,12.68
2024-03-02T07:43:50.375Z,12.38
2024-03-02T07:46:17.521Z,11.82
2024-03-02T07:48:44.673Z,10.77
2024-03-02T07:51:11.635Z,11.15
2024-03-02T07:53:38.691Z,10.60
2024-03-02T07:56:06.353Z,11.10
2024-03-02T07:58:33.481Z,10.95
2024-03-02T08:01:02.445Z,11.35
2024-03-02T08:06:14.782Z,11.70
2024-03-02T08:08:41.859Z,13.93
2024-03-02T08:11:08.908Z,13.00
2024-03-02T08:16:23.014Z,11.68
2024-03-02T08:18:50.760Z,11.85
2024-03-02T08:21:17.815Z,12.02
2024-03-02T08:23:45.327Z,13.00
2024-03-02T08:26:12.982Z,12.13
2024-03-02T08:28:40.426Z,11.82
2024-03-02T08:31:07.611Z,11.23
2024-03-02T08:33:38.568Z,10.20
2024-03-02T08:36:07.354Z,10.38
2024-03-02T08:38:34.574Z,10.90
2024-03-02T08:41:01.838Z,11.20
2024-03-02T08:43:28.963Z,12.18
2024-03-02T08:45:56.230Z,12.35
2024-03-02T08:48:23.419Z,12.93
2024-03-02T08:50:52.189Z,12.25
2024-03-02T08:53:19.478Z,12.00
2024-03-02T08:55:46.995Z,12.02
2024-03-02T08:58:14.136Z,11.75
2024-03-02T09:00:41.715Z,12.55
2024-03-02T09:03:08.959Z,11.07
2024-03-02T09:05:36.009Z,11.70
2024-03-02T09:08:05.049Z,11.65
2024-03-02T09:10:32.145Z,12.48
2024-03-02T09:12:59.910Z,13.80
2024-03-02T09:18:12.324Z,10.80
2024-03-02T09:20:39.457Z,11.43
2024-03-02T09:23:07.940Z,13.18
2024-03-02T09:25:35.099Z,13.52
2024-03-02T09:28:02.476Z,12.68
2024-03-02T09:30:29.719Z,12.80
2024-03-02T09:33:17.288Z,13.20
2024-03-02T09:35:43.852Z,13.35
2024-03-02T09:38:12.447Z,13.73
2024-03-02T09:40:39.578Z,13.18
2024-03-02T09:43:06.917Z,13.43
2024-03-02T09:45:34.167Z,13.73
2024-03-02T09:48:01.506Z,12.07
2024-03-02T09:50:28.528Z,12.32
2024-03-02T09:52:55.571Z,13.02
2024-03-02T09:55:24.074Z,12.57
2024-03-02T09:57:51.415Z,11.82
2024-03-02T10:00:19.265Z,11.02
2024-03-02T10:02:46.352Z,12.00
2024-03-02T10:05:13.460Z,10.82
2024-03-02T10:07:40.412Z,11.27
2024-03-02T10:10:15.429Z,10.25
2024-03-02T10:12:43.920Z,9.95
2024-03-02T10:15:11.358Z,10.23
2024-03-02T10:17:38.531Z,10.90
2024-03-02T10:20:24.643Z,9.93
2024-03-02T10:22:51.710Z,10.52
2024-03-02T10:25:37.512Z,9.35
2024-03-02T10:28:12.066Z,9.70
2024-03-02T10:30:39.116Z,8.98
2024-03-02T10:33:07.475Z,9.45
2024-03-02T10:35:34.755Z,8.30
2024-03-02T10:38:01.828Z,7.53
2024-03-02T10:40:28.867Z,8.05
2024-03-02T10:42:55.917Z,8.60
2024-03-02T10:45:25.793Z,7.05
2024-03-02T10:47:52.915Z,7.03
2024-03-02T10:50:19.937Z,6.10
2024-03-02T10:52:46.907Z,5.78
2024-03-02T10:55:14.083Z,5.38
2024-03-02T10:57:51.400Z,5.32
2024-03-02T11:00:19.862Z,5.57
2024-03-02T11:02:52.652Z,5.40
2024-03-02T11:07:59.182Z,4.18
2024-03-02T11:10:28.387Z,4.28
2024-03-02T11:13:00.863Z,4.60
2024-03-02T11:15:28.987Z,4.57
2024-03-02T11:17:59.011Z,4.75
2024-03-02T11:20:27.119Z,4.78
2024-03-02T11:22:54.605Z,4.80
2024-03-02T11:25:25.618Z,4.07
2024-03-02T11:28:03.127Z,3.97
2024-03-02T11:30:52.603Z,3.53
2024-03-02T11:36:14.647Z,2.75
2024-03-02T11:38:44.861Z,3.47
2024-03-02T11:41:12.002Z,3.70
2024-03-02T11:43:39.763Z,3.70
2024-03-02T11:46:07.602Z,4.05
2024-03-02T11:48:40.198Z,4.40
2024-03-02T11:51:07.249Z,3.40
2024-03-02T11:53:36.570Z,3.30
2024-03-02T11:56:04.144Z,2.83
2024-03-02T11:58:31.913Z,2.40
2024-03-02T12:00:59.365Z,2.80
2024-03-02T12:03:27.660Z,2.70
2024-03-02T12:05:56.568Z,2.60
2024-03-02T12:08:23.852Z,2.80
2024-03-02T12:11:00.990Z,2.70
2024-03-02T12:13:28.318Z,2.55
2024-03-02T12:15:56.148Z,2.63
2024-03-02T12:21:08.962Z,2.42
2024-03-02T12:23:36.163Z,2.28
2024-03-02T12:26:03.365Z,2.10
2024-03-02T12:28:32.297Z,2.22
2024-03-02T12:30:59.547Z,2.22
2024-03-02T12:33:27.011Z,1.75
2024-03-02T12:35:54.189Z,2.00
2024-03-02T12:38:22.528Z,2.17
2024-03-02T12:40:49.786Z,2.10
2024-03-02T12:43:16.786Z,2.58
2024-03-02T12:45:43.831Z,2.22
2024-03-02T12:48:10.973Z,1.92
2024-03-02T12:50:38.182Z,1.92
2024-03-02T12:53:05.518Z,1.80
2024-03-02T12:55:33.899Z,2.17
2024-03-02T12:58:01.665Z,1.95
2024-03-02T13:00:28.818Z,2.78
2024-03-02T13:02:57.947Z,2.08
2024-03-02T13:05:25.035Z,1.85
2024-03-02T13:07:52.059Z,1.95
2024-03-02T13:10:19.680Z,2.13
2024-03-02T13:12:48.540Z,1.70
2024-03-02T13:15:18.265Z,2.30
2024-03-02T13:17:46.591Z,1.85
2024-03-02T13:20:13.689Z,2.10
2024-03-02T13:22:40.775Z,1.65
2024-03-02T13:25:08.009Z,1.80
2024-03-02T13:27:35.406Z,1.60
2024-03-02T13:30:05.401Z,1.50
2024-03-02T13:32:32.345Z,1.73
2024-03-02T13:34:59.415Z,1.77
2024-03-02T13:37:26.420Z,1.95
2024-03-02T13:39:53.426Z,1.50
2024-03-02T13:42:20.520Z,1.27
2024-03-02T13:44:47.694Z,1.38
2024-03-02T13:47:16.205Z,1.63
2024-03-02T13:49:43.259Z,1.20
2024-03-02T13:52:10.512Z,1.40
2024-03-02T13:54:41.042Z,1.42
2024-03-02T13:57:08.947Z,1.35
2024-03-02T13:59:36.417Z,1.20
2024-03-02T14:02:03.875Z,1.60
2024-03-02T14:04:32.616Z,1.50
2024-03-02T14:06:59.814Z,1.38
2024-03-02T14:09:27.835Z,1.77
2024-03-02T14:11:55.299Z,1.60
2024-03-02T14:17:06.912Z,1.10
2024-03-02T14:19:35.463Z,1.27
2024-03-02T14:22:02.533Z,1.05
2024-03-02T14:24:29.784Z,1.15
2024-03-02T14:27:03.218Z,0.98
2024-03-02T14:29:37.382Z,1.02
2024-03-02T14:32:04.852Z,1.10
2024-03-02T14:34:32.016Z,1.65
2024-03-02T14:37:00.829Z,1.10
2024-03-02T14:39:28.181Z,1.25
2024-03-02T14:41:55.198Z,1.05
2024-03-02T14:44:22.274Z,1.00
2024-03-02T14:46:49.724Z,1.00
2024-03-02T14:49:16.709Z,1.20
2024-03-02T14:51:44.795Z,1.20
2024-03-02T14:54:13.237Z,0.90
2024-03-02T14:56:40.282Z,1.10
2024-03-02T14:59:07.236Z,1.20
2024-03-02T15:01:34.380Z,1.23
2024-03-02T15:04:01.565Z,1.30
2024-03-02T15:06:28.548Z,1.20
2024-03-02T15:08:55.569Z,0.80
2024-03-02T15:11:24.023Z,1.20
2024-03-02T15:13:51.046Z,0.80
2024-03-02T15:16:18.167Z,0.70
2024-03-02T15:18:45.123Z,1.00
2024-03-02T15:21:12.073Z,1.10
2024-03-02T15:23:39.140Z,0.98
2024-03-02T15:26:06.135Z,2.10
2024-03-02T15:28:34.546Z,1.17
2024-03-02T15:31:01.511Z,1.10
2024-03-02T15:33:28.589Z,0.95
2024-03-02T15:35:56.844Z,1.10
2024-03-02T15:38:32.711Z,1.23
2024-03-02T15:41:01.630Z,0.90
2024-03-02T15:43:28.674Z,0.80
2024-03-02T15:45:57.203Z,0.77
2024-03-02T15:48:24.364Z,0.90
2024-03-02T15:50:51.602Z,1.10
2024-03-02T15:53:18.807Z,0.95
2024-03-02T15:55:45.773Z,0.95
2024-03-02T15:58:12.906Z,1.30
2024-03-02T16:00:40.124Z,1.38
2024-03-02T16:03:08.472Z,1.60
2024-03-02T16:05:35.448Z,1.88
2024-03-02T16:08:02.447Z,2.20
2024-03-02T16:10:29.583Z,2.35
2024-03-02T16:12:56.713Z,1.90
2024-03-02T16:15:23.834Z,1.30
2024-03-02T16:17:50.837Z,1.20
2024-03-02T16:20:19.354Z,1.30
2024-03-02T16:22:46.424Z,1.40
2024-03-02T16:25:13.534Z,1.23
2024-03-02T16:27:41.484Z,0.85
2024-03-02T16:30:10.119Z,0.80
2024-03-02T16:32:37.276Z,1.10
2024-03-02T16:35:05.058Z,1.00
2024-03-02T16:37:33.491Z,0.77
2024-03-02T16:40:00.696Z,0.65
2024-03-02T16:42:27.758Z,0.93
2024-03-02T16:44:55.013Z,0.82
2024-03-02T16:47:22.830Z,0.65
2024-03-02T16:49:49.944Z,0.80
2024-03-02T16:52:16.967Z,0.98
2024-03-02T16:54:49.755Z,0.60
2024-03-02T16:57:17.246Z,0.98
2024-03-02T16:59:44.357Z,0.65
2024-03-02T17:02:11.448Z,0.75
2024-03-02T17:04:38.823Z,1.20
2024-03-02T17:07:06.073Z,1.60
2024-03-02T17:09:34.286Z,1.70
2024-03-02T17:12:02.819Z,1.83
2024-03-02T17:14:29.795Z,2.08
2024-03-02T17:16:56.889Z,2.17
2024-03-02T17:19:23.985Z,1.90
2024-03-02T17:21:51.093Z,2.05
2024-03-02T17:24:18.118Z,1.90
2024-03-02T17:26:45.437Z,1.95
2024-03-02T17:29:13.842Z,2.53
2024-03-02T17:31:40.920Z,2.80
2024-03-02T17:34:07.910Z,2.50
2024-03-02T17:36:34.966Z,2.92
2024-03-02T17:39:01.979Z,2.33
2024-03-02T17:41:29.011Z,2.40
2024-03-02T17:43:56.024Z,2.25
2024-03-02T17:46:24.860Z,2.70
2024-03-02T17:48:51.894Z,2.70
2024-03-02T17:51:19.022Z,2.08
2024-03-02T17:53:46.158Z,1.60
2024-03-02T17:56:13.411Z,1.70
2024-03-02T17:58:40.441Z,2.00
2024-03-02T18:01:07.566Z,2.40
2024-03-02T18:03:36.104Z,2.15
2024-03-02T18:06:04.514Z,2.30
2024-03-02T18:08:31.663Z,2.05
2024-03-02T18:10:58.689Z,2.28
2024-03-02T18:13:25.681Z,3.00
2024-03-02T18:15:52.888Z,2.47
2024-03-02T18:18:19.988Z,3.63
2024-03-02T18:23:33.203Z,4.50
2024-03-02T18:26:00.286Z,4.13
2024-03-02T18:28:27.395Z,4.28
2024-03-02T18:30:54.498Z,3.83
2024-03-02T18:33:21.515Z,5.38
2024-03-02T18:35:49.971Z,5.68
2024-03-02T18:38:17.040Z,5.10
2024-03-02T18:40:44.145Z,4.35
2024-03-02T18:43:11.157Z,4.38
2024-03-02T18:45:38.267Z,4.18
2024-03-02T18:48:06.122Z,4.47
2024-03-02T18:50:33.228Z,4.78
2024-03-02T18:53:01.830Z,4.68
2024-03-02T18:55:28.897Z,4.63
2024-03-02T18:57:56.056Z,12.93
2024-03-02T19:00:23.076Z,9.35
2024-03-02T19:02:50.105Z,6.03
2024-03-02T19:05:17.042Z,5.85
2024-03-02T19:07:44.044Z,4.30
2024-03-02T19:10:12.537Z,4.10
2024-03-02T19:12:42.214Z,8.07
2024-03-02T19:15:10.774Z,7.43
2024-03-02T19:17:37.934Z,8.98
2024-03-02T19:20:05.809Z,7.15
2024-03-02T19:22:32.970Z,10.98
2024-03-02T19:25:00.095Z,10.70
2024-03-02T19:27:28.518Z,21.38
2024-03-02T19:29:55.527Z,68.78
2024-03-02T19:32:22.618Z,37.40
2024-03-02T19:34:49.719Z,17.98
2024-03-02T19:37:16.821Z,9.27
2024-03-02T19:39:43.956Z,6.45
2024-03-02T19:42:10.984Z,8.75
2024-03-02T19:44:39.356Z,8.80
2024-03-02T19:47:06.461Z,5.65
2024-03-02T19:49:33.529Z,4.43
2024-03-02T19:52:00.591Z,3.58
2024-03-02T19:54:27.722Z,3.10
2024-03-02T19:56:54.818Z,2.83
2024-03-02T19:59:22.188Z,3.28
2024-03-02T20:01:50.864Z,4.18
2024-03-02T20:04:18.180Z,5.25
2024-03-02T20:06:45.302Z,6.72
2024-03-02T20:09:12.355Z,6.38
2024-03-02T20:11:39.412Z,6.75
2024-03-02T20:14:06.540Z,5.45
2024-03-02T20:16:33.530Z,7.55
2024-03-02T20:19:01.938Z,7.40
2024-03-02T20:21:28.940Z,6.88
2024-03-02T20:23:56.141Z,5.55
2024-03-02T20:26:23.146Z,5.97
2024-03-02T20:28:50.199Z,4.43
2024-03-02T20:31:17.304Z,4.70
2024-03-02T20:33:44.597Z,4.72
2024-03-02T20:36:15.029Z,4.55
2024-03-02T20:38:42.336Z,4.32
2024-03-02T20:41:15.163Z,4.50
2024-03-02T20:43:42.211Z,4.03
2024-03-02T20:46:09.310Z,3.58
2024-03-02T20:48:36.373Z,3.13
2024-03-02T20:51:03.487Z,2.50
2024-03-02T20:53:31.844Z,3.30
2024-03-02T20:55:58.892Z,3.00
2024-03-02T20:58:25.839Z,3.75
2024-03-02T21:00:52.861Z,4.03
2024-03-02T21:03:19.821Z,3.35
2024-03-02T21:05:47.006Z,3.45
2024-03-02T21:08:14.028Z,3.78
2024-03-02T21:10:42.678Z,3.20
2024-03-02T21:13:09.696Z,3.20
2024-03-02T21:15:36.750Z,2.83
2024-03-02T21:18:04.076Z,2.53
2024-03-02T21:20:31.154Z,2.63
2024-03-02T21:22:58.205Z,2.55
2024-03-02T21:25:25.242Z,2.88
2024-03-02T21:27:53.592Z,3.30
2024-03-02T21:30:20.589Z,2.83
2024-03-02T21:32:47.593Z,2.90
2024-03-02T21:37:59.549Z,2.97
2024-03-02T21:40:26.725Z,3.80
2024-03-02T21:42:55.223Z,3.38
2024-03-02T21:45:22.561Z,3.30
2024-03-02T21:47:49.908Z,3.60
2024-03-02T21:50:17.560Z,3.05
2024-03-02T21:52:44.788Z,2.58
2024-03-02T21:55:12.156Z,2.38
2024-03-02T21:57:39.868Z,2.53
2024-03-02T22:00:09.079Z,2.10
2024-03-02T22:02:36.083Z,2.40
2024-03-02T22:05:03.219Z,2.30
2024-03-02T22:07:30.307Z,2.58
2024-03-02T22:09:57.505Z,2.35
2024-03-02T22:12:24.610Z,2.20
2024-03-02T22:14:51.669Z,2.55
2024-03-02T22:17:20.056Z,2.28
2024-03-02T22:19:47.124Z,2.50
2024-03-02T22:22:14.388Z,2.38
2024-03-02T22:24:42.021Z,2.13
2024-03-02T22:27:09.107Z,2.28
2024-03-02T22:29:36.189Z,1.73
2024-03-02T22:32:03.248Z,2.22
2024-03-02T22:37:15.977Z,2.20
2024-03-02T22:39:43.086Z,2.30
2024-03-02T22:42:10.123Z,2.53
2024-03-02T22:44:37.163Z,2.65
2024-03-02T22:47:04.511Z,2.53
2024-03-02T22:49:33.014Z,2.22
2024-03-02T22:52:00.049Z,2.40
2024-03-02T22:54:27.126Z,2.28
2024-03-02T22:56:54.082Z,2.58
2024-03-02T22:59:21.134Z,2.30
2024-03-02T23:01:48.186Z,2.60
2024-03-02T23:04:15.263Z,2.45
2024-03-02T23:09:27.940Z,2.30
2024-03-02T23:11:54.928Z,2.30
2024-03-02T23:14:22.002Z,2.83
2024-03-02T23:16:48.968Z,2.08
2024-03-02T23:19:16.208Z,2.47
2024-03-02T23:21:44.733Z,2.45
2024-03-02T23:26:55.782Z,2.05
2024-03-02T23:29:22.753Z,2.35
2024-03-02T23:34:33.965Z,2.05
2024-03-02T23:37:02.632Z,2.33
2024-03-02T23:39:29.679Z,2.13
2024-03-02T23:44:41.375Z,2.67
2024-03-02T23:47:08.368Z,2.47
2024-03-02T23:49:35.462Z,2.20
2024-03-02T23:52:03.984Z,1.98
2024-03-02T23:54:30.942Z,2.42
2024-03-02T23:56:58.033Z,1.98
2024-03-02T23:59:25.002Z,1.95
